This is the latest recevied weather packets stored in our database for station/object N3WMC. If no packets are shown the sender has not sent any weather packets the latest 10 day(s).
| Time | Temp. | Humidity | Pressure | Rain* | Wind** | Luminosity | Snow |
|---|---|---|---|---|---|---|---|
| 1787921778 | 21.11° C | 84% | 1020.1 hPa | 0 mm | - | 286 W/m² | - |
| 1787921473 | 21.67° C | 83% | 1019.8 hPa | 0 mm | - | 280 W/m² | - |
| 1787921168 | 21.11° C | 84% | 1020.2 hPa | 0 mm | - | 267 W/m² | - |
| 1787920863 | 21.67° C | 82% | 1020 hPa | 0 mm | - | 261 W/m² | - |
| 1787920562 | 21.67° C | 81% | 1020 hPa | 0 mm | - | 258 W/m² | - |
| 1787920257 | 22.22° C | 80% | 1019.9 hPa | 0 mm | - | 270 W/m² | - |
| 1787919949 | 21.11° C | 84% | 1019.9 hPa | 0 mm | - | 265 W/m² | - |
| 1787919649 | 19.44° C | 89% | 1020 hPa | 0 mm | - | 240 W/m² | - |
| 1787919344 | 18.89° C | 95% | 1019.9 hPa | 0 mm | - | 183 W/m² | - |
| 1787919040 | 17.78° C | 98% | 1020 hPa | 0 mm | - | 134 W/m² | - |
| 1787918729 | 17.78° C | 99% | 1019.8 hPa | 0 mm | - | 102 W/m² | - |
| 1787918428 | 17.22° C | 99% | 1019.6 hPa | 0 mm | - | 85 W/m² | - |
| 1787918121 | 17.22° C | 99% | 1019.5 hPa | 0 mm | - | 74 W/m² | - |
| 1787917816 | 16.67° C | 99% | 1019.4 hPa | 0 mm | - | 71 W/m² | - |
| 1787917513 | 15.56° C | 99% | 1019.5 hPa | 0 mm | - | 56 W/m² | - |
| 1787917208 | 15.56° C | 99% | 1019.3 hPa | 0 mm | - | 40 W/m² | - |
| 1787916908 | 15.56° C | 99% | 1019.2 hPa | 0 mm | - | 36 W/m² | - |
| 1787916602 | 15.56° C | 99% | 1019.2 hPa | 0 mm | - | 33 W/m² | - |
| 1787916296 | 15.56° C | 99% | 1019.4 hPa | 0 mm | - | 30 W/m² | - |
| 1787915991 | 15.56° C | 99% | 1019.2 hPa | 0 mm | - | 27 W/m² | - |
| 1787915687 | 15.56° C | 99% | 1019.3 hPa | 0 mm | - | 24 W/m² | - |
| 1787915382 | 15.56° C | 99% | 1019.2 hPa | 0 mm | - | 21 W/m² | - |
| 1787915082 | 15.56° C | 99% | 1019.1 hPa | 0 mm | - | 17 W/m² | - |
| 1787914780 | 15.56° C | 99% | 1018.9 hPa | 0 mm | - | 13 W/m² | - |
| 1787914475 | 15.56° C | 99% | 1019.1 hPa | 0 mm | - | 9 W/m² | - |
* Rain latest hour (hover to see other rain measurements)
** Current wind speed in m/s (hover to see current wind gust speed)